Prairieview, North Dakota
Current Conditions -  °F | °C
As of 1:29 AM on Saturday 20 Dec 2014 (Local Time) from KMOT Reporting Station
Moderate Fog Moderate Fog  
Wind Chill: 22°   Ceiling: 200
Heat Index: 22°   Visibility: 0.5mi
Dew Point: 20°   Wind: 0mph
Humidity: 92%   Direction: NA
Pressure: 29.93"   Gusts: NA
Location:  47.8053°N, 101.295°W
Report Text: KMOT 200729Z AUTO 00000KT 1/2SM FZFG VV002 M06/M07 A2993 RMK AO2 I1000 T10561067
Loading
Personal Weather Stations






























Interactive Weather Map New forecast layout! Learn more

10-Day Weather Forecast

Advertisements
Track Severe Weather on mobile